N0QWM Weather Reports


time (UTC)temp
F
wind
direction
speed
knots
gust
knots
rain 1hr
in
rain 24hr
in
rain mn
in
humidity
%
barometer
mb
20211017155835 64 51 0.9 0.9 0.00 0.00 0.00 43 1029.7
20211017155335 64 30 0.0 0.0 0.00 0.00 0.00 47 1029.9
20211017154834 63 13 2.6 2.6 0.00 0.00 0.00 48 1029.5
20211017154332 62 25 0.9 0.9 0.00 0.00 0.00 49 1029.5
20211017153826 64 357 1.7 2.6 0.00 0.00 0.00 48 1029.6
20211017153324 64 3 0.9 0.9 0.00 0.00 0.00 47 1029.6
20211017152823 64 16 0.0 0.9 0.00 0.00 0.00 46 1029.7
20211017152323 63 82 0.9 1.7 0.00 0.00 0.00 47 1029.7
20211017151821 62 138 0.9 1.7 0.00 0.00 0.00 50 1029.8
20211017151322 61 332 2.6 4.3 0.00 0.00 0.00 50 1029.6
20211017150820 60 67 0.9 0.9 0.00 0.00 0.00 51 1029.8
20211017150319 60 48 1.7 2.6 0.00 0.00 0.00 51 1029.8
20211017145817 61 31 0.9 1.7 0.00 0.00 0.00 56 1029.9
20211017145316 61 31 0.0 0.0 0.00 0.00 0.00 54 1029.9
20211017144814 60 29 0.9 0.9 0.00 0.00 0.00 61 1030.0
20211017144312 58 30 0.0 0.0 0.00 0.00 0.00 63 1030.0
20211017143810 57 351 0.0 0.0 0.00 0.00 0.00 64 1030.0
20211017143308 56 22 0.9 1.7 0.00 0.00 0.00 65 1029.7
20211017142807 55 42 0.0 0.0 0.00 0.00 0.00 70 1029.8
20211017142306 55 140 0.9 0.9 0.00 0.00 0.00 72 1029.8
20211017141804 54 65 0.9 0.9 0.00 0.00 0.00 74 1029.7
20211017141301 53 15 1.7 1.7 0.00 0.00 0.00 76 1029.7
20211017140800 53 0 0.9 0.9 0.00 0.00 0.00 78 1029.6
20211017140258 52 358 0.9 0.9 0.00 0.00 0.00 79 1029.6
20211017135757 51 26 0.0 0.0 0.00 0.00 0.00 82 1029.5
20211017135256 50 28 0.0 0.0 0.00 0.00 0.00 87 1029.7
20211017134754 50 28 0.0 0.0 0.00 0.00 0.00 89 1029.6
20211017134252 49 25 0.0 0.0 0.00 0.00 0.00 91 1029.4
20211017133750 48 0 0.0 0.0 0.00 0.00 0.00 93 1029.4
20211017133249 47 3 0.0 0.0 0.00 0.00 0.00 94 1029.5
20211017132746 47 3 0.0 0.0 0.00 0.00 0.00 95 1029.3
20211017132247 46 3 0.9 0.9 0.00 0.00 0.00 95 1029.3
20211017131746 45 3 0.0 0.0 0.00 0.00 0.00 95 1029.3
20211017131245 45 3 0.0 0.0 0.00 0.00 0.00 95 1029.3
20211017130746 44 3 0.0 0.0 0.00 0.00 0.00 95 1029.4
20211017130245 44 3 0.0 0.0 0.00 0.00 0.00 95 1029.1
20211017125742 44 3 0.0 0.0 0.00 0.00 0.00 95 1029.2
20211017125241 43 3 0.0 0.0 0.00 0.00 0.00 95 1029.2
20211017124739 43 3 0.0 0.0 0.00 0.00 0.00 95 1029.1
20211017124239 43 2 0.0 0.0 0.00 0.00 0.00 95 1029.0
20211017123738 42 2 0.0 0.0 0.00 0.00 0.00 95 1029.2
20211017123237 42 2 0.0 0.0 0.00 0.00 0.00 95 1029.0
20211017122737 42 2 0.0 0.0 0.00 0.00 0.00 95 1028.9
20211017122237 42 2 0.0 0.0 0.00 0.00 0.00 95 1028.8
20211017121735 42 2 0.0 0.0 0.00 0.00 0.00 95 1028.8
20211017121233 42 2 0.0 0.0 0.00 0.00 0.00 94 1028.8
20211017120730 42 2 0.0 0.0 0.00 0.00 0.00 94 1028.8
20211017120228 42 2 0.0 0.0 0.00 0.00 0.00 94 1028.5
20211017115729 42 2 0.0 0.0 0.00 0.00 0.00 94 1028.9
20211017115226 42 2 0.0 0.0 0.00 0.00 0.00 94 1028.7
20211017114725 42 2 0.0 0.0 0.00 0.00 0.00 94 1028.5
20211017114222 42 2 0.0 0.0 0.00 0.00 0.00 94 1028.4
20211017113721 42 2 0.0 0.0 0.00 0.00 0.00 94 1028.4
20211017113220 42 2 0.0 0.0 0.00 0.00 0.00 94 1028.5
20211017112719 42 2 0.0 0.9 0.00 0.00 0.00 94 1028.5
20211017112217 43 2 0.0 0.0 0.00 0.00 0.00 94 1028.7
20211017111715 42 3 0.0 0.9 0.00 0.00 0.00 94 1028.6
20211017111213 42 3 0.0 0.0 0.00 0.00 0.00 94 1028.6
20211017110712 43 7 0.0 0.0 0.00 0.00 0.00 94 1028.5
20211017110211 43 7 0.0 0.0 0.00 0.00 0.00 94 1028.6
20211017105709 43 7 0.0 0.0 0.00 0.00 0.00 94 1028.5
20211017105207 43 10 0.0 0.0 0.00 0.00 0.00 94 1028.5
20211017104706 43 10 0.0 0.0 0.00 0.00 0.00 94 1028.6
20211017104205 43 14 0.0 0.0 0.00 0.00 0.00 94 1028.3
20211017103704 43 14 0.9 0.9 0.00 0.00 0.00 94 1028.4
20211017103204 43 14 0.0 0.9 0.00 0.00 0.00 94 1028.3
20211017102702 43 14 0.0 0.0 0.00 0.00 0.00 94 1028.3
20211017102200 43 15 0.0 0.0 0.00 0.00 0.00 94 1028.3
20211017101658 43 14 0.0 0.0 0.00 0.00 0.00 94 1028.2
20211017101156 43 14 0.0 0.0 0.00 0.00 0.00 94 1028.2
20211017100656 43 14 0.0 0.0 0.00 0.00 0.00 94 1028.0
20211017100155 43 14 0.0 0.0 0.00 0.00 0.00 94 1028.1
20211017095654 43 15 0.0 0.0 0.00 0.00 0.00 94 1028.3
20211017095153 44 15 0.0 0.0 0.00 0.00 0.00 94 1028.1
20211017094651 44 15 0.0 0.0 0.00 0.00 0.00 94 1028.2
20211017094149 44 15 0.0 0.9 0.00 0.00 0.00 94 1028.2
20211017093647 44 15 0.0 0.0 0.00 0.00 0.00 94 1028.2
20211017093145 44 15 0.0 0.0 0.00 0.00 0.00 94 1028.2
20211017092644 44 15 0.0 0.0 0.00 0.00 0.00 94 1028.3
20211017092142 44 15 0.0 0.0 0.00 0.00 0.00 94 1028.4
20211017091638 44 15 0.0 0.0 0.00 0.00 0.00 94 1028.3
20211017091136 44 15 0.0 0.0 0.00 0.00 0.00 94 1028.2
20211017090635 44 15 0.0 0.0 0.00 0.00 0.00 94 1028.3
20211017090133 44 15 0.0 0.0 0.00 0.00 0.00 93 1028.1
20211017085633 44 15 0.0 0.0 0.00 0.00 0.00 93 1028.1
20211017085131 44 15 0.0 0.0 0.00 0.00 0.00 93 1028.0
20211017084631 44 15 0.0 0.0 0.00 0.00 0.00 93 1028.2
20211017084125 44 15 0.0 0.0 0.00 0.00 0.00 93 1028.3
20211017083624 44 15 0.0 0.0 0.00 0.00 0.00 93 1028.1
20211017083122 44 15 0.0 0.0 0.00 0.00 0.00 93 1028.1
20211017082622 45 15 0.0 0.0 0.00 0.00 0.00 93 1027.9
20211017082120 45 15 0.0 0.0 0.00 0.00 0.00 93 1028.0
20211017081617 45 15 0.0 0.0 0.00 0.00 0.00 93 1028.1
20211017081109 45 15 0.0 0.0 0.00 0.00 0.00 93 1028.1
20211017080607 45 17 0.0 0.0 0.00 0.00 0.00 93 1028.1
20211017080102 45 17 0.0 0.0 0.00 0.00 0.00 93 1028.1
20211017075601 45 17 0.0 0.0 0.00 0.00 0.00 93 1027.8
20211017075100 45 17 0.0 0.0 0.00 0.00 0.00 93 1027.7
20211017074559 45 17 0.0 0.0 0.00 0.00 0.00 93 1027.9
20211017074059 45 17 0.0 0.0 0.00 0.00 0.00 93 1028.1
20211017073559 45 17 0.0 0.0 0.00 0.00 0.00 93 1028.0
20211017073058 45 17 0.0 0.0 0.00 0.00 0.00 92 1027.9
20211017072557 46 17 0.0 0.0 0.00 0.00 0.00 92 1028.1
20211017072055 46 17 0.0 0.0 0.00 0.00 0.00 92 1028.0
20211017071553 46 17 0.0 0.0 0.00 0.00 0.00 92 1028.0
20211017071051 46 17 0.0 0.0 0.00 0.00 0.00 92 1027.9
20211017070551 46 17 0.0 0.0 0.00 0.00 0.00 92 1027.9
20211017070050 46 17 0.0 0.0 0.00 0.00 0.00 92 1028.0
20211017065549 46 17 0.0 0.0 0.00 0.00 0.00 92 1027.9
20211017065049 46 17 0.0 0.0 0.00 0.00 0.00 92 1028.0
20211017064548 46 17 0.0 0.0 0.00 0.00 0.00 92 1028.0
20211017064047 46 17 0.0 0.0 0.00 0.00 0.00 92 1028.0
20211017063544 46 17 0.0 0.0 0.00 0.00 0.00 92 1027.9
20211017063043 46 17 0.0 0.0 0.00 0.00 0.00 92 1027.8
20211017062542 47 17 0.0 0.0 0.00 0.00 0.00 92 1028.0
20211017062040 46 17 0.0 0.0 0.00 0.00 0.00 91 1027.9
20211017061538 47 17 0.0 0.0 0.00 0.00 0.00 91 1027.9
20211017061036 46 17 0.0 0.0 0.00 0.00 0.00 91 1028.1
20211017060535 46 17 0.0 0.0 0.00 0.00 0.00 91 1028.2
20211017060036 47 17 0.0 0.0 0.00 0.00 0.00 91 1028.0
20211017055534 47 17 0.0 0.0 0.00 0.00 0.00 91 1027.9
20211017055031 47 17 0.0 0.0 0.00 0.00 0.00 91 1027.6
20211017054531 47 17 0.0 0.0 0.00 0.00 0.00 90 1028.0
20211017054031 47 17 0.0 0.0 0.00 0.00 0.00 90 1028.1
20211017053530 47 17 0.0 0.0 0.00 0.00 0.00 90 1028.0
20211017053029 48 17 0.0 0.0 0.00 0.00 0.00 90 1027.8
20211017052527 48 17 0.0 0.0 0.00 0.00 0.00 90 1027.8
20211017052026 48 17 0.0 0.0 0.00 0.00 0.00 89 1028.0
20211017051525 48 17 0.0 0.0 0.00 0.00 0.00 89 1027.9
20211017051023 48 17 0.0 0.0 0.00 0.00 0.00 89 1027.9
20211017050524 48 17 0.0 0.0 0.00 0.00 0.00 89 1027.8
20211017050022 48 17 0.0 0.0 0.00 0.13 0.13 89 1027.9
20211017045521 48 17 0.0 0.0 0.00 0.13 0.13 89 1027.8
20211017045020 48 16 0.0 0.0 0.00 0.13 0.13 89 1027.6
20211017044520 48 16 0.0 0.0 0.00 0.13 0.13 89 1027.6
20211017044018 48 16 0.0 0.0 0.00 0.13 0.13 89 1027.6
20211017043514 49 16 0.0 0.0 0.00 0.13 0.13 89 1027.7
20211017043008 49 16 0.0 0.0 0.00 0.13 0.13 89 1027.4
20211017042505 49 16 0.0 0.0 0.00 0.13 0.13 88 1027.6
20211017042003 49 16 0.0 0.0 0.00 0.13 0.13 88 1027.6
20211017041501 49 16 0.0 0.0 0.00 0.13 0.13 88 1027.7
20211017040959 49 16 0.0 0.0 0.00 0.13 0.13 88 1027.6
20211017040457 49 16 0.0 0.0 0.00 0.13 0.13 88 1027.6
20211017035956 49 16 0.0 0.0 0.00 0.13 0.13 88 1027.5
20211017035452 49 16 0.0 0.0 0.00 0.13 0.13 87 1027.5
20211017034951 49 16 0.0 0.0 0.00 0.13 0.13 88 1027.6
20211017034449 49 16 0.0 0.0 0.00 0.13 0.13 87 1027.4
20211017033948 49 16 0.0 0.0 0.00 0.13 0.13 87 1027.6
20211017033442 49 16 0.0 0.0 0.00 0.13 0.13 87 1027.8
20211017032942 49 16 0.0 0.0 0.00 0.13 0.13 87 1027.6
20211017032441 49 16 0.0 0.0 0.00 0.13 0.13 87 1027.7
20211017031940 49 16 0.0 0.0 0.00 0.13 0.13 87 1027.7
20211017031439 50 16 0.0 0.0 0.00 0.13 0.13 87 1027.6
20211017030938 50 16 0.0 0.0 0.00 0.13 0.13 86 1027.6
20211017030437 50 16 0.0 0.0 0.00 0.13 0.13 86 1027.7
20211017025936 50 16 0.0 0.0 0.00 0.13 0.13 86 1027.8
20211017025436 51 16 0.0 0.0 0.00 0.13 0.13 85 1027.7
20211017024934 51 16 0.0 0.0 0.00 0.13 0.13 85 1027.5
20211017024434 51 16 0.0 0.0 0.00 0.13 0.13 85 1027.7
20211017023933 51 16 0.0 0.0 0.00 0.13 0.13 84 1027.5
20211017023433 51 16 0.0 0.0 0.00 0.13 0.13 84 1027.2
20211017022932 51 16 0.0 0.0 0.00 0.13 0.13 84 1027.3
20211017022431 51 16 0.0 0.0 0.00 0.13 0.13 84 1027.3
20211017021929 52 16 0.0 0.0 0.00 0.13 0.13 84 1027.1
20211017021428 52 16 0.0 0.0 0.00 0.13 0.13 83 1027.1
20211017020926 52 16 0.0 0.0 0.00 0.13 0.13 82 1027.0
20211017020425 52 16 0.0 0.0 0.00 0.13 0.13 81 1026.8
20211017015923 52 16 0.0 0.0 0.00 0.13 0.13 81 1027.1
20211017015423 52 16 0.0 0.0 0.00 0.13 0.13 81 1026.8
20211017014922 52 16 0.0 0.0 0.00 0.13 0.13 80 1026.8
20211017014420 53 15 0.0 0.0 0.00 0.13 0.13 81 1026.9
20211017013919 52 15 0.0 0.0 0.00 0.13 0.13 81 1026.8
20211017013409 53 16 0.0 0.0 0.00 0.13 0.13 80 1026.9
20211017012909 53 16 0.0 0.0 0.00 0.13 0.13 80 1026.7
20211017012408 53 16 0.0 0.0 0.00 0.13 0.13 80 1026.8
20211017011908 53 16 0.0 0.0 0.00 0.13 0.13 80 1026.6
20211017011407 53 15 0.0 0.0 0.00 0.13 0.13 81 1026.6
20211017010906 53 15 0.0 0.0 0.00 0.13 0.13 81 1026.5
20211017010405 53 15 0.0 0.0 0.00 0.13 0.13 81 1026.6
20211017005904 53 15 0.0 0.0 0.00 0.13 0.13 80 1026.7
20211017005400 53 15 0.0 0.0 0.00 0.13 0.13 80 1026.5
20211017004859 53 15 0.0 0.0 0.00 0.13 0.13 80 1026.7
20211017004353 53 15 0.0 0.0 0.00 0.13 0.13 79 1026.5
20211017003852 54 14 0.0 0.0 0.00 0.13 0.13 79 1026.7
20211017003353 54 14 0.0 0.0 0.00 0.13 0.13 78 1026.5
20211017002845 54 14 0.0 0.0 0.00 0.13 0.13 76 1026.4
20211017002344 54 14 0.0 0.0 0.00 0.13 0.13 76 1026.4
20211017001842 55 14 0.0 0.0 0.00 0.13 0.13 76 1026.4
20211017001340 55 15 0.0 0.0 0.00 0.13 0.13 75 1026.2
20211017000836 55 14 0.0 0.0 0.00 0.13 0.13 74 1026.2
20211017000335 55 14 0.0 0.0 0.00 0.13 0.13 72 1026.2
20211016235832 56 16 0.0 0.0 0.00 0.13 0.13 71 1026.2
20211016235331 56 15 0.0 0.0 0.00 0.13 0.13 72 1026.1
20211016234829 57 4 0.0 0.0 0.00 0.13 0.13 70 1025.9
20211016234327 57 3 0.0 0.0 0.00 0.13 0.13 69 1025.8
20211016233827 58 4 0.0 0.0 0.00 0.13 0.13 66 1026.0
20211016233326 58 4 0.0 0.0 0.00 0.13 0.13 64 1025.7
20211016232826 59 3 0.0 0.0 0.00 0.13 0.13 62 1025.8
20211016232324 59 3 0.0 0.0 0.00 0.13 0.13 60 1025.9
20211016231822 60 3 0.0 0.0 0.00 0.13 0.13 58 1025.7
20211016231320 60 3 0.0 0.0 0.00 0.13 0.13 57 1025.8
20211016230818 61 3 0.0 0.0 0.00 0.13 0.13 55 1025.5
20211016230310 62 2 0.0 0.0 0.00 0.13 0.13 52 1025.7
20211016225810 62 16 0.0 0.0 0.00 0.13 0.13 52 1025.6
20211016225309 62 6 0.0 0.0 0.00 0.13 0.13 51 1025.3
20211016224808 63 14 0.9 0.9 0.00 0.13 0.13 49 1025.5
20211016224257 63 7 0.0 0.0 0.00 0.13 0.13 48 1025.4
20211016223757 64 343 0.9 0.9 0.00 0.13 0.13 45 1025.4
20211016223255 64 358 1.7 1.7 0.00 0.13 0.13 47 1025.4
20211016222754 64 339 0.9 0.9 0.00 0.13 0.13 46 1025.3
20211016222252 64 4 1.7 1.7 0.00 0.13 0.13 48 1025.4
20211016221751 65 347 0.9 0.9 0.00 0.13 0.13 48 1025.5
20211016221248 65 347 0.9 1.7 0.00 0.13 0.13 45 1025.3
20211016220748 65 323 0.0 0.9 0.00 0.13 0.13 47 1025.3
20211016220247 65 10 0.9 1.7 0.00 0.13 0.13 47 1025.1
20211016215742 65 25 0.0 0.0 0.00 0.13 0.13 46 1025.2
20211016215240 65 349 0.9 0.9 0.00 0.13 0.13 45 1025.0
20211016214738 65 24 0.9 0.9 0.00 0.13 0.13 43 1025.0
20211016214237 66 14 1.7 1.7 0.00 0.13 0.13 42 1025.1
20211016213735 66 8 0.9 1.7 0.00 0.13 0.13 42 1025.0
20211016213235 66 342 1.7 1.7 0.00 0.13 0.13 44 1024.7
20211016212732 66 29 3.5 4.3 0.00 0.13 0.13 40 1025.0
20211016212230 66 3 1.7 1.7 0.00 0.13 0.13 42 1024.9
20211016211728 66 23 0.0 0.9 0.00 0.13 0.13 42 1024.8
20211016211227 66 358 1.7 1.7 0.00 0.13 0.13 41 1024.9
20211016210726 66 12 0.9 1.7 0.00 0.13 0.13 41 1024.9
20211016210225 66 251 1.7 1.7 0.00 0.13 0.13 41 1024.8
20211016205722 66 28 2.6 2.6 0.00 0.13 0.13 43 1024.7
20211016205221 66 13 0.9 1.7 0.00 0.13 0.13 41 1024.8
20211016204719 66 0 0.9 1.7 0.00 0.13 0.13 41 1024.8
20211016204218 66 37 4.3 6.1 0.00 0.13 0.13 41 1024.8
20211016203716 67 17 2.6 5.2 0.00 0.13 0.13 40 1024.6
20211016203216 66 336 3.5 6.1 0.00 0.13 0.13 40 1025.0
20211016202715 67 42 2.6 4.3 0.00 0.13 0.13 41 1024.6
20211016202212 67 12 1.7 1.7 0.00 0.13 0.13 45 1024.8
20211016201712 67 325 0.9 0.9 0.00 0.13 0.13 46 1024.2
20211016201211 67 265 2.6 4.3 0.00 0.13 0.13 47 1024.6
20211016200710 67 298 0.9 1.7 0.00 0.13 0.13 46 1024.6
20211016200209 66 344 1.7 1.7 0.00 0.13 0.13 45 1024.6
20211016195709 67 349 1.7 2.6 0.00 0.13 0.13 45 1024.8
20211016195209 67 339 0.9 1.7 0.00 0.13 0.13 45 1024.3
20211016194701 68 5 0.9 0.9 0.00 0.13 0.13 44 1024.6
20211016194159 68 336 0.9 1.7 0.00 0.13 0.13 47 1024.8
20211016193658 68 349 1.7 2.6 0.00 0.13 0.13 45 1024.8
20211016193157 68 13 1.7 1.7 0.00 0.13 0.13 46 1024.7
20211016192655 68 2 3.5 4.3 0.00 0.13 0.13 46 1024.9
20211016192154 68 3 2.6 4.3 0.00 0.13 0.13 45 1024.6
20211016191652 69 35 0.0 0.0 0.00 0.13 0.13 48 1024.6
20211016191152 68 2 0.9 1.7 0.00 0.13 0.13 46 1024.8
20211016190649 68 7 0.9 1.7 0.00 0.13 0.13 46 1024.6
20211016190149 67 17 1.7 2.6 0.00 0.13 0.13 47 1024.9
20211016185648 67 3 1.7 2.6 0.00 0.13 0.13 45 1024.9
20211016185147 68 339 4.3 5.2 0.00 0.13 0.13 46 1025.0
20211016184645 68 10 0.9 1.7 0.00 0.13 0.13 45 1024.8
20211016184142 68 15 0.9 0.9 0.00 0.13 0.13 47 1025.1
20211016183641 68 331 1.7 1.7 0.00 0.13 0.13 47 1024.8
20211016183141 68 326 0.9 1.7 0.00 0.13 0.13 48 1024.9
20211016182640 68 343 0.9 0.9 0.00 0.13 0.13 48 1025.0
20211016182134 69 285 1.7 2.6 0.00 0.13 0.13 50 1025.0
20211016181625 68 337 1.7 2.6 0.00 0.13 0.13 50 1025.2
20211016181124 68 344 1.7 2.6 0.00 0.13 0.13 50 1025.2
20211016180623 67 348 2.6 2.6 0.00 0.13 0.13 51 1025.4
20211016180121 67 7 0.0 0.0 0.00 0.13 0.13 49 1025.2
20211016175619 67 20 2.6 4.3 0.00 0.13 0.13 49 1025.4
20211016175118 67 318 0.9 1.7 0.00 0.13 0.13 48 1025.4
20211016174617 66 356 2.6 2.6 0.00 0.13 0.13 50 1025.4
20211016174115 67 20 4.3 6.1 0.00 0.13 0.13 48 1025.2
20211016173613 68 351 0.0 0.0 0.00 0.13 0.13 50 1025.5
20211016173112 67 354 0.9 2.6 0.00 0.13 0.13 52 1025.8
20211016172611 67 28 4.3 5.2 0.00 0.13 0.13 52 1025.5
20211016172108 67 336 1.7 1.7 0.00 0.13 0.13 52 1025.8
20211016171605 66 9 1.7 2.6 0.00 0.13 0.13 53 1025.6
20211016171104 67 0 0.9 1.7 0.00 0.13 0.13 56 1025.9
20211016170601 66 355 0.9 0.9 0.00 0.13 0.13 55 1026.1
20211016170059 66 15 1.7 1.7 0.00 0.13 0.13 56 1025.9
20211016165553 66 3 1.7 1.7 0.00 0.13 0.13 59 1025.8
20211016165053 65 348 3.5 5.2 0.00 0.13 0.13 57 1025.8
20211016164551 66 341 2.6 2.6 0.00 0.13 0.13 58 1025.8
20211016164051 65 351 1.7 2.6 0.00 0.13 0.13 59 1025.6
20211016163550 66 68 1.7 1.7 0.00 0.13 0.13 59 1025.5
20211016163049 67 353 2.6 2.6 0.00 0.13 0.13 58 1025.5
20211016162547 66 9 2.6 4.3 0.00 0.13 0.13 62 1025.3
20211016162045 66 11 0.0 0.0 0.00 0.13 0.13 62 1025.7
20211016161545 65 30 0.0 0.0 0.00 0.13 0.13 61 1025.8
20211016161043 66 7 2.6 2.6 0.00 0.13 0.13 63 1025.6
20211016160541 65 352 0.9 0.9 0.00 0.13 0.13 64 1025.7
20211016160040 65 4 0.9 1.7 0.00 0.13 0.13 65 1025.7